Time;durP1;ratioP1;P1;durP2;ratioP2;P2;SDS_P1;SDS_P2;PMS_P1;PMS_P2;Temp;Humidity;BMP_temperature;BMP_pressure;BME280_temperature;BME280_humidity;BME280_pressure;Samples;Min_cycle;Max_cycle;Signal;HPM_P1;HPM_P2
2023/01/28 00:02:23;;;;;;;9.43;8.63;;;3.00;92.90;;;;;;5051775;28;20877;-89
2023/01/28 00:04:48;;;;;;;9.60;8.70;;;2.90;93.80;;;;;;5069101;28;20411;-90
2023/01/28 00:07:14;;;;;;;9.48;8.60;;;2.90;93.40;;;;;;5068509;28;20419;-89
2023/01/28 00:09:40;;;;;;;8.70;7.90;;;2.90;93.80;;;;;;5069094;28;20465;-89
2023/01/28 00:12:06;;;;;;;9.10;8.30;;;2.90;93.70;;;;;;5051845;28;20472;-89
2023/01/28 00:14:31;;;;;;;9.80;8.90;;;3.00;94.00;;;;;;5068522;28;20754;-89
2023/01/28 00:16:57;;;;;;;10.03;9.13;;;2.90;94.20;;;;;;5068665;28;20486;-89
2023/01/28 00:19:23;;;;;;;9.95;9.15;;;2.90;94.30;;;;;;5068153;28;20469;-90
2023/01/28 00:21:48;;;;;;;8.85;8.05;;;2.90;94.10;;;;;;5052100;28;20400;-89
2023/01/28 00:24:14;;;;;;;9.15;8.35;;;3.00;93.80;;;;;;5068415;28;20696;-88
2023/01/28 00:26:40;;;;;;;8.82;8.02;;;2.90;93.60;;;;;;5068444;28;20419;-88
2023/01/28 00:29:06;;;;;;;8.77;7.97;;;3.00;93.70;;;;;;5051053;28;20432;-89
2023/01/28 00:31:33;;;;;;;8.32;7.63;;;3.00;93.70;;;;;;5051797;28;20400;-89
2023/01/28 00:33:58;;;;;;;6.73;6.13;;;2.90;93.30;;;;;;5068311;28;20418;-90
2023/01/28 00:36:25;;;;;;;8.67;7.87;;;3.00;92.60;;;;;;5051658;28;20400;-89
2023/01/28 00:38:57;;;;;;;8.70;7.90;;;2.90;93.20;;;;;;5051995;28;20898;-88
2023/01/28 00:41:25;;;;;;;9.93;9.02;;;3.00;93.30;;;;;;5068061;28;20396;-90
2023/01/28 00:43:51;;;;;;;9.57;8.68;;;3.00;93.90;;;;;;5068136;28;20755;-89
2023/01/28 00:46:18;;;;;;;9.57;8.67;;;3.00;93.90;;;;;;5050953;28;20502;-89
2023/01/28 00:48:44;;;;;;;9.10;8.30;;;3.00;94.20;;;;;;5051125;28;20508;-89
2023/01/28 00:51:12;;;;;;;8.60;7.80;;;3.00;94.00;;;;;;5067632;28;20408;-88
2023/01/28 00:53:38;;;;;;;8.90;8.07;;;3.00;93.90;;;;;;5051127;28;20412;-89
2023/01/28 00:56:06;;;;;;;10.40;9.40;;;2.90;93.50;;;;;;5067844;28;20407;-89
2023/01/28 00:58:32;;;;;;;9.95;9.05;;;2.90;93.60;;;;;;5067088;28;20411;-88
2023/01/28 01:01:09;;;;;;;9.88;8.93;;;2.90;94.50;;;;;;5067456;28;20909;-89
2023/01/28 01:03:35;;;;;;;9.32;8.43;;;2.90;94.70;;;;;;5067437;28;20463;-89
2023/01/28 01:06:01;;;;;;;9.10;8.30;;;2.90;94.00;;;;;;5051014;28;20475;-89
2023/01/28 01:08:33;;;;;;;8.60;7.80;;;2.90;94.00;;;;;;5050391;28;20435;-89
2023/01/28 01:11:00;;;;;;;8.15;7.45;;;2.90;94.00;;;;;;5067512;28;20426;-89
2023/01/28 01:13:26;;;;;;;9.40;8.43;;;2.90;94.00;;;;;;5067665;28;20439;-89
2023/01/28 01:16:08;;;;;;;8.38;7.68;;;2.90;93.90;;;;;;5066741;28;20455;-89
2023/01/28 01:18:34;;;;;;;9.00;8.18;;;2.80;93.90;;;;;;5050953;28;20411;-88
2023/01/28 01:21:02;;;;;;;6.47;5.88;;;2.80;94.30;;;;;;5050348;28;20407;-88
2023/01/28 01:23:29;;;;;;;3.90;3.55;;;2.80;92.80;;;;;;5067510;28;20431;-88
2023/01/28 01:25:55;;;;;;;4.93;4.43;;;2.80;91.90;;;;;;5067539;28;20402;-89
2023/01/28 01:28:22;;;;;;;6.37;5.87;;;2.80;92.20;;;;;;5049158;28;20868;-90
2023/01/28 01:30:48;;;;;;;5.70;5.20;;;2.80;92.60;;;;;;5067292;28;20408;-90
2023/01/28 01:33:15;;;;;;;6.00;5.50;;;2.80;92.70;;;;;;5050106;28;20399;-90
2023/01/28 01:35:41;;;;;;;5.90;5.30;;;2.80;93.20;;;;;;5050810;28;20396;-89
2023/01/28 01:38:07;;;;;;;6.15;5.60;;;2.80;92.90;;;;;;5066355;28;20411;-89
2023/01/28 01:40:33;;;;;;;7.37;6.67;;;2.80;92.80;;;;;;5067407;28;20424;-89
2023/01/28 01:42:58;;;;;;;9.40;7.75;;;2.80;93.40;;;;;;5049899;28;20416;-90
2023/01/28 01:45:25;;;;;;;7.20;6.50;;;2.80;93.70;;;;;;5050040;28;20406;-90
2023/01/28 01:48:11;;;;;;;8.57;7.55;;;2.80;94.10;;;;;;5066835;28;20420;-89
2023/01/28 01:50:51;;;;;;;8.00;7.22;;;2.80;93.80;;;;;;5066691;28;20419;-89
2023/01/28 01:53:19;;;;;;;6.87;6.27;;;2.70;93.50;;;;;;5048096;28;20490;-90
2023/01/28 01:55:48;;;;;;;6.60;6.00;;;2.80;94.00;;;;;;5066360;28;20410;-90
2023/01/28 01:58:18;;;;;;;6.45;5.90;;;2.70;93.50;;;;;;5066631;28;20399;-90
2023/01/28 02:00:45;;;;;;;6.30;5.80;;;2.80;93.40;;;;;;5049614;28;20430;-89
2023/01/28 02:03:11;;;;;;;5.30;4.80;;;2.80;93.20;;;;;;5049831;28;20410;-89
2023/01/28 02:05:38;;;;;;;6.32;5.43;;;2.80;92.90;;;;;;5066717;28;20910;-88
2023/01/28 02:08:22;;;;;;;7.00;6.40;;;2.90;93.10;;;;;;5066282;28;20443;-90
2023/01/28 02:11:09;;;;;;;9.32;8.48;;;2.90;93.40;;;;;;5049800;28;20408;-87
2023/01/28 02:13:46;;;;;;;7.28;6.65;;;3.00;93.50;;;;;;5066591;28;20766;-89
2023/01/28 02:16:12;;;;;;;7.57;6.88;;;2.90;92.90;;;;;;5049295;28;20434;-90
2023/01/28 02:18:38;;;;;;;7.57;6.88;;;2.90;92.90;;;;;;5066463;28;20487;-90
2023/01/28 02:21:33;;;;;;;6.68;6.07;;;3.00;93.50;;;;;;5049474;28;20843;-89
2023/01/28 02:24:17;;;;;;;6.50;6.00;;;2.90;93.40;;;;;;5049825;28;20759;-88
2023/01/28 02:26:51;;;;;;;7.15;6.45;;;2.90;93.70;;;;;;5049632;28;20412;-89
2023/01/28 02:29:42;;;;;;;6.00;5.50;;;2.90;93.80;;;;;;5049171;28;20415;-89
2023/01/28 02:32:19;;;;;;;6.68;6.07;;;2.90;93.60;;;;;;5060847;28;20404;-88
2023/01/28 02:35:07;;;;;;;6.70;6.10;;;2.90;93.90;;;;;;5066474;28;20942;-90
2023/01/28 02:37:39;;;;;;;6.75;6.15;;;2.90;94.10;;;;;;5049305;28;20411;-89
2023/01/28 02:40:22;;;;;;;6.07;5.50;;;2.90;93.90;;;;;;5049441;28;20404;-89
2023/01/28 02:42:47;;;;;;;5.57;4.97;;;3.00;93.50;;;;;;5044294;28;20411;-88
2023/01/28 02:48:26;;;;;;;5.57;5.10;;;2.90;92.90;;;;;;5062434;28;21030;-89
2023/01/28 02:51:15;;;;;;;5.20;4.80;;;2.90;93.70;;;;;;5065432;28;20414;-88
2023/01/28 02:53:58;;;;;;;5.15;4.65;;;2.80;93.30;;;;;;5049411;28;20426;-89
2023/01/28 02:56:37;;;;;;;4.90;4.50;;;2.90;92.90;;;;;;5046394;28;20496;-89
2023/01/28 02:59:31;;;;;;;5.85;5.35;;;2.80;92.70;;;;;;5048989;28;20419;-89
2023/01/28 03:02:39;;;;;;;5.60;4.95;;;2.80;93.60;;;;;;5049200;28;20412;-89
2023/01/28 03:05:26;;;;;;;5.35;4.95;;;2.90;93.80;;;;;;5027965;28;20418;-88
2023/01/28 03:07:53;;;;;;;5.75;5.25;;;2.80;93.50;;;;;;5081911;28;20431;-88
2023/01/28 03:10:22;;;;;;;6.55;5.95;;;2.80;93.50;;;;;;5049003;28;20432;-89
2023/01/28 03:38:24;;;;;;;7.38;6.55;;;2.80;94.10;;;;;;5065314;28;20408;-89
2023/01/28 03:41:02;;;;;;;6.90;6.20;;;2.80;94.10;;;;;;5048890;28;20491;-90
2023/01/28 03:43:29;;;;;;;6.75;5.82;;;2.70;94.40;;;;;;5061100;28;20906;-90
2023/01/28 03:45:55;;;;;;;7.07;6.38;;;2.80;93.80;;;;;;5065538;28;20392;-89
2023/01/28 03:48:23;;;;;;;6.30;5.70;;;2.70;94.50;;;;;;5048260;28;20459;-88
2023/01/28 03:50:49;;;;;;;5.97;5.47;;;2.70;94.40;;;;;;5067364;28;20418;-89
2023/01/28 03:53:16;;;;;;;7.47;6.78;;;2.70;93.80;;;;;;5069189;28;20439;-89
2023/01/28 03:55:42;;;;;;;7.80;7.00;;;2.70;93.90;;;;;;5052188;28;20820;-88
2023/01/28 03:58:09;;;;;;;7.13;6.45;;;2.80;94.40;;;;;;5052568;28;20453;-90
2023/01/28 04:00:36;;;;;;;6.53;5.82;;;2.80;94.30;;;;;;5051623;28;20414;-89
2023/01/28 04:03:03;;;;;;;6.47;5.85;;;2.80;94.00;;;;;;5052176;28;20399;-89
2023/01/28 04:05:29;;;;;;;6.22;5.57;;;2.70;93.50;;;;;;5051995;28;20833;-88
2023/01/28 04:07:55;;;;;;;5.93;5.32;;;2.70;93.60;;;;;;5051937;28;20459;-89
2023/01/28 04:10:21;;;;;;;6.47;5.88;;;2.70;93.70;;;;;;5068293;28;20452;-89
2023/01/28 04:12:48;;;;;;;6.35;5.75;;;2.70;93.60;;;;;;5052216;28;20444;-89
2023/01/28 04:15:15;;;;;;;6.30;5.70;;;2.90;93.70;;;;;;5068567;28;20435;-88
2023/01/28 04:17:47;;;;;;;6.87;6.27;;;2.70;93.70;;;;;;5051479;28;20471;-89
2023/01/28 04:20:13;;;;;;;5.63;5.13;;;2.70;93.90;;;;;;5047950;28;20756;-89
2023/01/28 04:22:39;;;;;;;6.38;5.78;;;2.70;93.60;;;;;;5068168;28;20411;-90
2023/01/28 04:25:05;;;;;;;6.20;5.70;;;2.70;93.70;;;;;;5051919;28;20762;-88
2023/01/28 04:27:31;;;;;;;5.90;5.30;;;2.70;93.60;;;;;;5050728;28;20423;-88
2023/01/28 04:29:56;;;;;;;5.67;5.17;;;2.70;93.30;;;;;;5068844;28;20407;-90
2023/01/28 04:32:22;;;;;;;5.75;5.15;;;2.70;93.40;;;;;;5051070;28;20993;-90
2023/01/28 04:34:48;;;;;;;5.90;5.40;;;2.70;93.30;;;;;;5051331;28;20422;-89
2023/01/28 04:37:14;;;;;;;6.60;6.00;;;2.70;93.90;;;;;;5068811;28;20763;-90
2023/01/28 04:39:39;;;;;;;7.37;6.67;;;2.70;94.00;;;;;;5051144;28;20816;-89
2023/01/28 04:42:05;;;;;;;6.47;5.87;;;2.70;94.20;;;;;;5068107;28;20407;-90
2023/01/28 04:44:31;;;;;;;6.82;6.13;;;2.70;94.20;;;;;;5067816;28;20758;-88
2023/01/28 04:46:56;;;;;;;5.90;5.22;;;2.70;94.00;;;;;;5051196;28;20945;-89
2023/01/28 04:49:22;;;;;;;6.10;5.50;;;2.70;93.70;;;;;;5050931;28;20915;-89
2023/01/28 04:51:47;;;;;;;5.70;5.20;;;2.70;93.30;;;;;;5050639;28;20412;-89
2023/01/28 04:54:13;;;;;;;5.43;4.82;;;2.60;93.70;;;;;;5051029;28;20400;-89
2023/01/28 04:56:39;;;;;;;6.60;6.00;;;2.60;93.50;;;;;;5050976;28;20415;-88
2023/01/28 04:59:04;;;;;;;8.00;7.30;;;2.60;94.10;;;;;;5051096;28;20407;-89
2023/01/28 05:01:30;;;;;;;6.95;6.35;;;2.60;94.30;;;;;;5049643;28;20428;-88
2023/01/28 05:03:56;;;;;;;6.82;6.22;;;2.60;94.90;;;;;;5067651;28;20418;-88
2023/01/28 05:06:21;;;;;;;6.83;6.20;;;2.60;94.50;;;;;;5067418;28;20500;-89
2023/01/28 05:08:47;;;;;;;7.20;6.40;;;2.60;94.10;;;;;;5050677;28;20432;-89
2023/01/28 05:11:13;;;;;;;6.75;6.15;;;2.60;94.10;;;;;;5050568;28;20406;-89
2023/01/28 05:13:38;;;;;;;6.90;6.30;;;2.60;94.00;;;;;;5050474;28;20435;-89
2023/01/28 05:16:04;;;;;;;6.30;5.70;;;2.60;94.20;;;;;;5067325;28;20407;-90
2023/01/28 05:18:30;;;;;;;7.93;7.22;;;2.50;94.10;;;;;;5049811;28;20439;-89
2023/01/28 05:20:56;;;;;;;7.50;6.32;;;2.50;94.80;;;;;;5050498;28;20975;-89
2023/01/28 05:23:21;;;;;;;7.40;6.70;;;2.50;94.80;;;;;;5050251;28;20776;-88
2023/01/28 05:25:47;;;;;;;7.20;6.50;;;2.50;94.40;;;;;;5066982;28;20408;-89
2023/01/28 05:28:13;;;;;;;7.10;6.40;;;2.50;94.60;;;;;;5050022;28;20443;-89
2023/01/28 05:30:39;;;;;;;6.90;6.30;;;2.50;94.40;;;;;;5050373;28;20775;-89
2023/01/28 05:33:04;;;;;;;7.93;7.13;;;2.50;94.20;;;;;;5050191;28;20929;-89
2023/01/28 05:35:30;;;;;;;7.60;6.90;;;2.50;94.40;;;;;;5050098;28;20549;-88
2023/01/28 05:37:56;;;;;;;7.47;6.77;;;2.50;94.60;;;;;;5050247;28;20416;-89
2023/01/28 05:40:21;;;;;;;8.20;7.40;;;2.50;94.80;;;;;;5049923;28;20396;-89
2023/01/28 05:42:47;;;;;;;7.53;6.80;;;2.50;94.80;;;;;;5050282;28;20403;-89
2023/01/28 05:45:13;;;;;;;7.80;7.00;;;2.50;94.50;;;;;;5049618;28;20408;-89
2023/01/28 05:47:38;;;;;;;8.32;7.13;;;2.60;94.40;;;;;;5049610;28;20493;-89
2023/01/28 05:50:06;;;;;;;7.50;6.80;;;2.60;94.70;;;;;;5066377;28;20483;-89
2023/01/28 05:52:31;;;;;;;7.60;6.90;;;2.50;94.80;;;;;;5065872;28;20408;-89
2023/01/28 05:54:57;;;;;;;7.45;6.78;;;2.60;94.50;;;;;;5049901;28;20411;-88
2023/01/28 05:57:23;;;;;;;7.83;7.13;;;2.50;94.20;;;;;;5066101;28;20486;-88
2023/01/28 05:59:48;;;;;;;7.20;6.60;;;2.50;93.90;;;;;;5066403;28;20400;-89
2023/01/28 06:02:14;;;;;;;7.70;7.00;;;2.60;93.80;;;;;;5065977;28;20506;-89
2023/01/28 06:04:39;;;;;;;7.30;6.60;;;2.60;93.90;;;;;;5050291;28;20438;-89
2023/01/28 06:07:05;;;;;;;8.03;7.27;;;2.50;94.00;;;;;;5049744;28;20779;-88
2023/01/28 06:09:30;;;;;;;7.93;7.22;;;2.60;94.20;;;;;;5049538;28;20404;-89
2023/01/28 06:11:56;;;;;;;7.30;6.60;;;2.60;94.50;;;;;;5049121;28;20486;-89
2023/01/28 06:14:22;;;;;;;8.60;7.80;;;2.50;94.10;;;;;;5049087;28;20882;-90
2023/01/28 06:16:47;;;;;;;7.55;6.85;;;2.60;94.40;;;;;;5066299;28;20921;-89
2023/01/28 06:19:13;;;;;;;7.63;6.93;;;2.40;94.30;;;;;;5063869;28;20898;-88
2023/01/28 06:21:39;;;;;;;8.37;7.67;;;2.50;94.00;;;;;;5049591;28;20403;-90
2023/01/28 06:24:05;;;;;;;7.53;6.90;;;2.50;94.20;;;;;;5048216;28;21072;-90
2023/01/28 06:26:30;;;;;;;7.80;7.00;;;2.50;93.80;;;;;;5049054;28;20404;-90
2023/01/28 06:28:56;;;;;;;7.90;7.20;;;2.50;94.00;;;;;;5065773;28;21129;-88
2023/01/28 06:31:21;;;;;;;8.33;7.53;;;2.50;93.90;;;;;;5049035;28;20490;-88
2023/01/28 06:33:47;;;;;;;8.00;7.20;;;2.50;94.20;;;;;;5048892;28;20398;-89
2023/01/28 06:36:12;;;;;;;8.45;7.65;;;2.50;94.50;;;;;;5047897;28;20473;-90
2023/01/28 06:38:38;;;;;;;7.63;6.90;;;2.50;94.50;;;;;;5044533;28;20495;-89
2023/01/28 06:41:04;;;;;;;7.63;6.93;;;2.80;94.40;;;;;;5065240;28;20408;-89
2023/01/28 06:43:30;;;;;;;7.80;7.10;;;2.50;94.30;;;;;;5047862;28;20415;-90
2023/01/28 06:45:59;;;;;;;7.60;6.90;;;2.50;94.50;;;;;;5047615;28;20415;-90
2023/01/28 06:48:26;;;;;;;7.20;6.60;;;2.70;94.60;;;;;;5048315;28;20427;-89
2023/01/28 06:50:52;;;;;;;7.22;6.53;;;2.40;94.60;;;;;;5047661;28;20395;-90
2023/01/28 06:53:18;;;;;;;7.55;6.85;;;2.50;94.70;;;;;;5047587;28;20429;-89
2023/01/28 06:55:45;;;;;;;7.40;6.70;;;2.40;94.80;;;;;;5047986;28;20406;-89
2023/01/28 06:58:11;;;;;;;7.65;6.90;;;2.40;94.70;;;;;;5047072;28;20415;-90
2023/01/28 07:00:36;;;;;;;8.07;7.28;;;2.40;94.70;;;;;;5048107;28;20400;-90
2023/01/28 07:03:03;;;;;;;8.18;7.38;;;2.30;95.10;;;;;;5047890;28;20457;-89
2023/01/28 07:05:29;;;;;;;7.90;7.13;;;2.30;94.80;;;;;;5048217;28;20437;-90
2023/01/28 07:07:55;;;;;;;7.65;6.95;;;2.50;94.90;;;;;;5047869;28;21078;-89
2023/01/28 07:10:21;;;;;;;7.68;6.97;;;2.50;94.80;;;;;;5047416;28;20414;-89
2023/01/28 07:12:47;;;;;;;7.43;6.72;;;2.30;94.30;;;;;;5048631;28;20406;-89
2023/01/28 07:15:14;;;;;;;7.80;7.07;;;2.10;94.20;;;;;;5048400;28;20894;-89
2023/01/28 07:17:43;;;;;;;8.88;7.97;;;2.00;94.30;;;;;;5048772;28;20898;-89
2023/01/28 07:20:11;;;;;;;9.60;8.45;;;1.80;94.40;;;;;;5064825;28;20845;-90
2023/01/28 07:22:39;;;;;;;10.20;9.20;;;1.70;94.70;;;;;;5048751;28;20895;-90
2023/01/28 07:25:06;;;;;;;10.07;9.07;;;1.70;94.90;;;;;;5065625;28;20796;-89
2023/01/28 07:27:32;;;;;;;10.30;9.30;;;1.60;94.90;;;;;;5059731;28;20431;-89
2023/01/28 07:29:57;;;;;;;10.80;9.80;;;1.50;95.20;;;;;;5052433;28;20465;-89
2023/01/28 07:32:25;;;;;;;10.87;9.80;;;1.40;95.30;;;;;;5052122;28;20508;-89
2023/01/28 07:34:51;;;;;;;11.07;9.88;;;1.30;95.30;;;;;;5052859;28;20399;-90
2023/01/28 07:37:17;;;;;;;11.53;10.33;;;1.20;95.50;;;;;;5068286;28;20941;-89
2023/01/28 07:39:42;;;;;;;13.30;11.90;;;1.20;95.60;;;;;;5068515;28;20838;-89
2023/01/28 07:42:08;;;;;;;13.23;11.73;;;1.20;95.90;;;;;;5068012;28;20411;-90
2023/01/28 07:44:35;;;;;;;13.00;11.60;;;1.30;96.30;;;;;;5068621;28;20483;-90
2023/01/28 07:47:02;;;;;;;12.95;11.52;;;1.10;96.50;;;;;;5069224;28;20403;-89
2023/01/28 07:49:27;;;;;;;12.27;11.02;;;1.20;96.60;;;;;;5069007;28;20461;-89
2023/01/28 07:51:53;;;;;;;12.27;11.07;;;1.30;96.50;;;;;;5069004;28;20915;-89
2023/01/28 07:54:18;;;;;;;12.53;11.27;;;1.20;96.40;;;;;;5068595;28;20815;-87
2023/01/28 07:56:44;;;;;;;11.50;10.40;;;1.20;96.50;;;;;;5052095;28;20437;-89
2023/01/28 07:59:10;;;;;;;11.70;10.50;;;1.30;96.70;;;;;;5068382;28;20435;-90
2023/01/28 08:01:35;;;;;;;12.47;11.00;;;1.30;96.60;;;;;;5068674;28;20800;-90
2023/01/28 08:04:01;;;;;;;12.90;11.60;;;1.30;96.60;;;;;;5068543;28;20414;-90
2023/01/28 08:06:30;;;;;;;11.93;10.73;;;1.40;96.60;;;;;;5062073;28;20436;-89
2023/01/28 08:08:55;;;;;;;13.68;12.07;;;1.40;96.30;;;;;;5031833;28;20437;-89
2023/01/28 08:11:22;;;;;;;13.60;12.00;;;1.50;96.30;;;;;;5048097;28;20457;-91
2023/01/28 08:13:48;;;;;;;14.32;12.82;;;1.50;96.20;;;;;;5068076;28;21120;-90
2023/01/28 08:16:14;;;;;;;15.48;13.50;;;1.50;96.00;;;;;;5068398;28;20403;-89
2023/01/28 08:18:40;;;;;;;15.00;12.50;;;1.60;96.30;;;;;;5068353;28;20422;-89
2023/01/28 08:21:05;;;;;;;14.17;12.63;;;1.60;96.20;;;;;;5067856;28;20430;-89
2023/01/28 08:23:33;;;;;;;13.30;12.00;;;1.70;96.10;;;;;;5068403;28;20495;-90
2023/01/28 08:25:59;;;;;;;13.80;12.45;;;1.70;95.80;;;;;;5068118;28;20435;-90
2023/01/28 08:28:25;;;;;;;13.90;12.50;;;1.80;95.80;;;;;;5068219;28;20428;-89
2023/01/28 08:30:51;;;;;;;13.20;11.90;;;1.90;95.70;;;;;;5068835;28;20508;-89
2023/01/28 08:33:18;;;;;;;12.33;11.03;;;1.90;95.60;;;;;;5068250;28;20403;-90
2023/01/28 08:35:43;;;;;;;13.82;12.48;;;2.10;95.40;;;;;;5068063;28;20403;-87
2023/01/28 08:38:12;;;;;;;13.10;11.80;;;2.00;95.00;;;;;;5066770;28;20423;-89
2023/01/28 08:40:37;;;;;;;11.57;10.37;;;2.00;95.10;;;;;;5051532;28;21090;-90
2023/01/28 08:43:03;;;;;;;12.33;11.13;;;2.10;94.80;;;;;;5050762;28;20412;-89
2023/01/28 08:45:30;;;;;;;13.03;11.73;;;2.20;94.70;;;;;;5050958;28;20415;-89
2023/01/28 08:48:01;;;;;;;12.10;10.80;;;2.20;94.60;;;;;;5050945;28;20787;-90
2023/01/28 08:50:31;;;;;;;11.90;10.77;;;2.20;94.30;;;;;;5067528;28;20435;-89
2023/01/28 08:52:58;;;;;;;11.77;10.70;;;2.20;94.30;;;;;;5067575;28;20407;-89
2023/01/28 08:55:25;;;;;;;11.65;10.45;;;2.30;94.30;;;;;;5067690;28;20393;-89
2023/01/28 08:57:51;;;;;;;11.65;10.55;;;2.30;94.10;;;;;;5051077;28;20469;-88
2023/01/28 09:00:17;;;;;;;11.75;10.65;;;2.30;94.00;;;;;;5051009;28;20419;-89
2023/01/28 09:02:44;;;;;;;12.13;10.97;;;2.40;93.80;;;;;;5051458;28;20444;-90
2023/01/28 09:05:10;;;;;;;11.30;10.20;;;2.40;93.90;;;;;;5050794;28;20424;-89
2023/01/28 09:07:37;;;;;;;12.32;11.07;;;2.50;93.90;;;;;;5050813;28;20469;-89
2023/01/28 09:10:04;;;;;;;11.82;10.73;;;2.50;93.80;;;;;;5067488;28;20834;-89
2023/01/28 09:12:30;;;;;;;11.50;10.50;;;2.50;93.80;;;;;;5050291;28;20408;-87
2023/01/28 09:14:55;;;;;;;11.88;10.80;;;2.60;94.00;;;;;;5050459;28;20426;-90
2023/01/28 09:17:21;;;;;;;12.13;10.93;;;2.60;94.00;;;;;;5050610;28;20412;-89
2023/01/28 09:19:47;;;;;;;11.85;10.73;;;2.80;93.60;;;;;;5067466;28;20412;-89
2023/01/28 09:22:13;;;;;;;11.18;10.18;;;2.70;93.60;;;;;;5050266;28;20454;-89
2023/01/28 09:24:38;;;;;;;12.60;11.27;;;2.90;93.60;;;;;;5050489;28;20788;-89
2023/01/28 09:27:04;;;;;;;12.00;10.73;;;2.80;93.50;;;;;;5050616;28;20477;-89
2023/01/28 09:29:29;;;;;;;11.37;10.17;;;2.80;93.20;;;;;;5050405;28;20411;-90
2023/01/28 09:31:55;;;;;;;11.38;10.20;;;2.90;92.80;;;;;;5050287;28;20419;-89
2023/01/28 09:34:21;;;;;;;11.57;10.47;;;2.90;92.80;;;;;;5050052;28;20408;-89
2023/01/28 09:36:46;;;;;;;12.27;11.07;;;3.00;92.40;;;;;;5050647;28;20403;-90
2023/01/28 09:39:12;;;;;;;11.82;10.73;;;3.10;92.70;;;;;;5066340;28;20419;-89
2023/01/28 09:42:03;;;;;;;11.25;10.15;;;3.40;92.90;;;;;;5067008;28;20493;-90
2023/01/28 09:44:28;;;;;;;11.93;10.75;;;3.30;92.90;;;;;;5066943;28;20427;-87
2023/01/28 09:47:03;;;;;;;11.27;10.17;;;3.40;92.90;;;;;;5049992;28;20902;-89
2023/01/28 09:49:35;;;;;;;10.98;9.88;;;3.40;92.10;;;;;;5066204;28;20416;-89
2023/01/28 09:52:01;;;;;;;10.82;9.73;;;3.40;92.20;;;;;;5049771;28;20420;-89
2023/01/28 09:54:43;;;;;;;10.02;9.10;;;3.50;92.10;;;;;;5049976;28;20415;-89
2023/01/28 09:57:21;;;;;;;10.18;9.18;;;3.40;92.30;;;;;;5050001;28;20403;-89
2023/01/28 09:59:48;;;;;;;10.32;9.32;;;3.50;92.20;;;;;;5049426;28;20497;-90
2023/01/28 10:02:24;;;;;;;10.63;9.60;;;3.50;92.10;;;;;;5050012;28;20403;-89
2023/01/28 10:05:16;;;;;;;10.23;9.23;;;3.50;91.90;;;;;;5049873;28;20553;-90
2023/01/28 10:07:50;;;;;;;10.45;9.45;;;3.60;92.20;;;;;;5049439;28;20611;-90
2023/01/28 10:10:24;;;;;;;9.63;8.63;;;3.60;92.10;;;;;;5066871;28;20545;-90
2023/01/28 10:13:23;;;;;;;8.52;7.70;;;3.60;91.60;;;;;;5049395;28;20403;-89
2023/01/28 10:16:14;;;;;;;8.80;8.00;;;3.80;91.30;;;;;;5058536;28;20514;-89
2023/01/28 10:18:52;;;;;;;8.93;8.00;;;4.30;91.40;;;;;;5049571;28;20411;-90
2023/01/28 10:21:40;;;;;;;7.77;6.97;;;5.00;91.80;;;;;;5065763;28;20499;-90
2023/01/28 10:24:27;;;;;;;7.68;6.97;;;5.50;89.60;;;;;;5049666;28;20411;-91
2023/01/28 10:26:53;;;;;;;7.22;6.63;;;5.80;86.10;;;;;;5066074;28;20466;-90
2023/01/28 10:29:24;;;;;;;7.78;6.97;;;5.80;83.40;;;;;;5049487;28;20563;-91
2023/01/28 10:32:15;;;;;;;9.03;8.13;;;5.70;85.90;;;;;;5066200;28;20408;-90
2023/01/28 10:34:40;;;;;;;8.55;7.75;;;5.60;86.50;;;;;;5048858;28;20445;-90
2023/01/28 10:37:07;;;;;;;8.68;7.88;;;5.60;87.20;;;;;;5065907;28;20415;-89
2023/01/28 10:39:33;;;;;;;8.40;7.60;;;5.50;86.70;;;;;;5049545;28;20423;-89
2023/01/28 10:41:59;;;;;;;9.00;8.20;;;5.40;85.70;;;;;;5066193;28;20903;-90
2023/01/28 10:44:36;;;;;;;9.38;8.57;;;5.40;87.90;;;;;;5065611;28;20933;-89
2023/01/28 10:47:18;;;;;;;9.27;8.38;;;5.20;89.30;;;;;;5049159;28;20419;-90
2023/01/28 10:49:50;;;;;;;9.32;8.43;;;5.30;90.30;;;;;;5049756;28;20419;-90
2023/01/28 10:52:17;;;;;;;9.05;8.15;;;5.30;89.30;;;;;;5048842;28;20461;-90
2023/01/28 10:54:43;;;;;;;8.98;8.18;;;5.40;90.30;;;;;;5048140;28;20442;-91
2023/01/28 10:57:15;;;;;;;8.65;7.85;;;5.80;90.00;;;;;;5066014;28;20408;-91
2023/01/28 10:59:41;;;;;;;9.02;8.23;;;5.80;90.00;;;;;;5067427;28;20421;-90
2023/01/28 11:02:28;;;;;;;8.60;7.80;;;5.70;88.50;;;;;;5069942;28;20395;-91
2023/01/28 11:05:16;;;;;;;8.60;7.80;;;5.70;87.80;;;;;;5053484;28;20486;-90
2023/01/28 11:07:42;;;;;;;9.98;9.07;;;5.70;88.60;;;;;;5069258;28;20427;-89
2023/01/28 11:10:28;;;;;;;8.88;8.07;;;5.60;90.10;;;;;;5053216;28;20787;-89
2023/01/28 11:12:59;;;;;;;8.60;7.80;;;5.70;89.90;;;;;;5069957;28;20481;-90
2023/01/28 11:15:25;;;;;;;9.35;8.45;;;5.60;89.70;;;;;;5070064;28;20446;-91
2023/01/28 11:17:57;;;;;;;9.15;8.25;;;5.60;90.00;;;;;;5069559;28;20447;-91
2023/01/28 11:20:25;;;;;;;10.13;9.18;;;5.60;89.40;;;;;;5069767;28;20495;-90
2023/01/28 11:22:52;;;;;;;9.73;8.82;;;5.70;90.50;;;;;;5069566;28;20411;-90
2023/01/28 11:25:27;;;;;;;9.10;8.20;;;5.60;90.80;;;;;;5070024;28;20400;-91
2023/01/28 11:27:53;;;;;;;9.30;8.38;;;5.80;90.30;;;;;;5052789;28;20434;-90
2023/01/28 11:30:26;;;;;;;9.20;8.37;;;5.90;90.50;;;;;;5069090;28;21274;-91
2023/01/28 11:32:55;;;;;;;8.77;7.85;;;5.80;90.10;;;;;;5053158;28;20439;-91
2023/01/28 11:35:27;;;;;;;8.63;7.40;;;5.90;90.10;;;;;;5052823;28;20420;-90
2023/01/28 11:37:53;;;;;;;8.60;7.72;;;5.90;89.70;;;;;;5053118;28;20407;-90
2023/01/28 11:40:19;;;;;;;8.40;7.53;;;5.90;89.90;;;;;;5069151;28;20480;-90
2023/01/28 11:42:47;;;;;;;9.35;8.45;;;5.90;90.20;;;;;;5053050;28;20419;-90
2023/01/28 11:45:19;;;;;;;8.93;8.02;;;5.90;88.80;;;;;;5069190;28;20408;-91
2023/01/28 11:48:05;;;;;;;8.15;7.38;;;6.00;90.00;;;;;;5052540;28;20539;-91
2023/01/28 11:50:46;;;;;;;7.82;7.07;;;6.20;90.00;;;;;;5069179;28;20404;-92
2023/01/28 11:53:31;;;;;;;7.65;6.78;;;6.30;86.60;;;;;;5069190;28;20461;-92
2023/01/28 11:56:14;;;;;;;7.65;6.82;;;6.40;87.30;;;;;;5069377;28;20478;-91
2023/01/28 11:58:59;;;;;;;10.23;7.43;;;6.30;88.40;;;;;;5052721;28;20444;-90
2023/01/28 12:01:57;;;;;;;7.57;6.88;;;6.30;87.10;;;;;;5052120;28;20450;-91
2023/01/28 12:04:43;;;;;;;7.30;6.50;;;6.20;86.50;;;;;;5052363;28;20805;-89
2023/01/28 12:07:22;;;;;;;6.78;6.07;;;6.10;87.90;;;;;;5068620;28;20809;-90
2023/01/28 12:09:48;;;;;;;8.02;6.53;;;5.90;87.00;;;;;;5068370;28;20775;-90
2023/01/28 12:12:25;;;;;;;8.90;6.77;;;5.70;88.60;;;;;;5068526;28;20411;-90
2023/01/28 12:15:30;;;;;;;8.50;6.72;;;5.60;89.70;;;;;;5068792;28;20408;-91
2023/01/28 12:18:11;;;;;;;8.60;6.85;;;5.40;90.00;;;;;;5069033;28;20420;-88
2023/01/28 12:21:07;;;;;;;6.43;5.82;;;5.80;90.50;;;;;;5069063;28;20411;-91
2023/01/28 12:23:45;;;;;;;6.72;6.13;;;6.70;89.80;;;;;;5068557;28;20415;-91
2023/01/28 12:26:16;;;;;;;6.78;6.18;;;7.50;86.40;;;;;;5068678;28;20414;-92
2023/01/28 12:28:54;;;;;;;6.50;5.90;;;7.90;83.00;;;;;;5068555;28;20428;-91
2023/01/28 12:31:45;;;;;;;8.82;6.63;;;8.40;81.30;;;;;;5068167;28;20415;-90
2023/01/28 12:34:38;;;;;;;7.43;6.30;;;8.60;81.10;;;;;;5068414;28;20447;-90
2023/01/28 12:37:18;;;;;;;6.90;6.20;;;8.50;80.20;;;;;;5068508;28;20838;-92
2023/01/28 12:39:59;;;;;;;6.88;6.28;;;8.40;81.20;;;;;;5068208;28;20424;-91
2023/01/28 12:42:51;;;;;;;6.75;5.72;;;8.50;81.60;;;;;;5068566;28;20416;-90
2023/01/28 12:45:28;;;;;;;6.35;5.75;;;8.40;81.20;;;;;;5051488;28;20423;-90
2023/01/28 12:48:16;;;;;;;7.05;6.35;;;8.40;81.40;;;;;;5067863;28;20477;-90
2023/01/28 12:50:54;;;;;;;6.85;6.15;;;8.20;81.80;;;;;;5068340;28;20434;-90
2023/01/28 12:53:45;;;;;;;7.43;6.20;;;8.10;81.30;;;;;;5068110;28;20418;-89
2023/01/28 12:56:22;;;;;;;7.87;6.10;;;7.90;82.30;;;;;;5051358;28;20404;-92
2023/01/28 12:59:27;;;;;;;6.63;5.97;;;7.90;84.10;;;;;;5051090;28;20431;-89
2023/01/28 13:02:11;;;;;;;7.18;5.60;;;8.00;83.20;;;;;;5051134;28;20429;-89
2023/01/28 13:04:43;;;;;;;9.80;7.50;;;7.90;82.80;;;;;;5068126;28;20424;-90
2023/01/28 13:07:21;;;;;;;6.95;6.03;;;7.80;84.50;;;;;;5067617;28;20416;-90
2023/01/28 13:10:25;;;;;;;10.00;8.55;;;7.80;82.80;;;;;;5081907;28;20501;-91
2023/01/28 13:12:52;;;;;;;19.40;17.00;;;7.80;85.00;;;;;;5050650;28;20415;-89
2023/01/28 13:15:19;;;;;;;16.30;14.60;;;7.80;84.80;;;;;;5050933;28;20824;-91
2023/01/28 13:18:02;;;;;;;8.60;7.70;;;7.80;85.40;;;;;;5084929;28;20403;-91
2023/01/28 13:20:35;;;;;;;8.27;7.00;;;7.90;82.30;;;;;;5050700;28;20408;-90
2023/01/28 13:23:21;;;;;;;8.40;4.55;;;7.80;84.00;;;;;;5049454;28;20422;-90
2023/01/28 13:25:48;;;;;;;6.00;5.17;;;7.70;84.10;;;;;;5067707;28;20893;-89
2023/01/28 13:28:26;;;;;;;6.80;5.22;;;7.50;85.00;;;;;;5050087;28;20431;-90
2023/01/28 13:31:05;;;;;;;6.07;4.95;;;7.40;85.70;;;;;;5067664;28;21087;-91
2023/01/28 13:33:41;;;;;;;7.57;5.00;;;7.30;85.90;;;;;;5050650;28;20475;-90
2023/01/28 13:36:27;;;;;;;7.55;5.18;;;7.30;85.90;;;;;;5050093;28;20399;-90
2023/01/28 13:39:13;;;;;;;7.90;5.85;;;7.20;87.10;;;;;;5049848;28;20420;-91
2023/01/28 13:41:46;;;;;;;7.28;5.53;;;7.20;88.00;;;;;;5065673;28;20790;-91